| time (UTC) | temp F | wind direction | speed MPH | gust MPH | rain 1hr in | rain 24hr in | rain mn in | humidity % | barometer mb |
| 20260502233016 | 63 | 270 | 7.0 | 18.0 | 0.00 | 0.00 | 0.00 | 27 | 1013.6 |
| 20260502230017 | 63 | 248 | 7.0 | 22.0 | 0.00 | 0.00 | 0.00 | 26 | 1014.0 |
| 20260502223017 | 63 | 270 | 7.0 | 22.0 | 0.00 | 0.00 | 0.00 | 27 | 1014.3 |
| 20260502220017 | 64 | 270 | 7.0 | 22.0 | 0.00 | 0.00 | 0.00 | 27 | 1014.6 |
| 20260502213017 | 64 | 248 | 7.0 | 24.0 | 0.00 | 0.00 | 0.00 | 28 | 1014.9 |
| 20260502210017 | 64 | 248 | 7.0 | 22.0 | 0.00 | 0.00 | 0.00 | 27 | 1015.3 |
| 20260502203017 | 64 | 270 | 7.0 | 20.0 | 0.00 | 0.00 | 0.00 | 27 | 1015.6 |
| 20260502200017 | 64 | 225 | 6.0 | 18.0 | 0.00 | 0.00 | 0.00 | 31 | 1016.1 |
| 20260502193057 | 63 | 293 | 6.0 | 20.0 | 0.00 | 0.00 | 0.00 | 27 | 1016.6 |
| 20260502190017 | 62 | 270 | 6.0 | 17.0 | 0.00 | 0.00 | 0.00 | 26 | 1016.9 |
| 20260502183017 | 60 | 203 | 6.0 | 18.0 | 0.00 | 0.00 | 0.00 | 28 | 1017.2 |
| 20260502163017 | 57 | 248 | 4.0 | 17.0 | 0.00 | 0.00 | 0.00 | 30 | 1018.4 |
| 20260502123017 | 39 | 0.0 | 0.0 | 0.00 | 0.01 | 0.00 | 79 | 1019.0 | |
| 20260502113017 | 29 | 0.0 | 0.0 | 0.00 | 0.02 | 0.00 | 88 | 1018.2 | |
| 20260502110037 | 29 | 0.0 | 0.0 | 0.00 | 0.02 | 0.00 | 88 | 1018.0 | |
| 20260502103017 | 29 | 0.0 | 0.0 | 0.00 | 0.02 | 0.00 | 87 | 1017.8 | |
| 20260502070017 | 33 | 0.0 | 3.0 | 0.00 | 0.02 | 0.00 | 78 | 1018.0 | |
| 20260502063016 | 33 | 0.0 | 0.0 | 0.00 | 0.02 | 0.00 | 77 | 1018.0 | |
| 20260502060017 | 34 | 0.0 | 0.0 | 0.00 | 0.02 | 0.00 | 76 | 1018.0 | |
| 20260502053037 | 35 | 0.0 | 1.0 | 0.00 | 0.02 | 0.00 | 74 | 1017.9 | |
| 20260502050109 | 36 | 0.0 | 0.0 | 0.00 | 0.02 | 0.00 | 70 | 1017.8 | |
| 20260502043037 | 38 | 0.0 | 0.0 | 0.00 | 0.02 | 0.02 | 67 | 1017.7 | |
| 20260502040017 | 40 | 0.0 | 4.0 | 0.00 | 0.02 | 0.02 | 64 | 1017.6 | |
| 20260502033037 | 42 | 0 | 1.0 | 4.0 | 0.00 | 0.02 | 0.02 | 56 | 1017.3 |
| 20260502030017 | 43 | 0 | 3.0 | 6.0 | 0.00 | 0.02 | 0.02 | 53 | 1017.0 |
| 20260502023017 | 44 | 0 | 1.0 | 6.0 | 0.00 | 0.02 | 0.02 | 52 | 1016.6 |
| 20260502020017 | 45 | 0.0 | 3.0 | 0.00 | 0.02 | 0.02 | 50 | 1016.3 | |
| 20260502013017 | 48 | 0 | 3.0 | 8.0 | 0.00 | 0.02 | 0.02 | 44 | 1015.9 |
| 20260502010017 | 50 | 0 | 6.0 | 13.0 | 0.00 | 0.02 | 0.02 | 40 | 1015.5 |
| 20260502003017 | 52 | 338 | 4.0 | 11.0 | 0.00 | 0.02 | 0.02 | 38 | 1015.5 |
| 20260502000017 | 53 | 315 | 4.0 | 14.0 | 0.00 | 0.02 | 0.02 | 37 | 1015.2 |